createdAt,value
2022-12-31T00:00:34.564Z,76.52
2022-12-31T00:03:02.555Z,76.37
2022-12-31T00:05:32.911Z,76.56
2022-12-31T00:08:01.587Z,76.62
2022-12-31T00:10:29.958Z,76.56
2022-12-31T00:12:58.112Z,76.50
2022-12-31T00:15:26.153Z,76.53
2022-12-31T00:17:53.949Z,76.51
2022-12-31T00:20:21.747Z,76.47
2022-12-31T00:22:50.902Z,76.49
2022-12-31T00:25:18.689Z,76.29
2022-12-31T00:27:46.454Z,76.33
2022-12-31T00:30:15.743Z,76.67
2022-12-31T00:32:43.541Z,76.64
2022-12-31T00:35:11.353Z,76.62
2022-12-31T00:37:39.181Z,76.61
2022-12-31T00:40:10.398Z,76.49
2022-12-31T00:42:38.184Z,76.62
2022-12-31T00:45:06.658Z,76.39
2022-12-31T00:47:34.541Z,76.40
2022-12-31T00:50:02.436Z,76.52
2022-12-31T00:52:30.229Z,76.59
2022-12-31T00:54:58.370Z,76.59
2022-12-31T00:57:27.510Z,76.96
2022-12-31T00:59:55.301Z,76.83
2022-12-31T01:02:23.206Z,76.65
2022-12-31T01:04:51.103Z,76.94
2022-12-31T01:07:18.839Z,76.99
2022-12-31T01:09:46.590Z,77.11
2022-12-31T01:12:14.338Z,77.05
2022-12-31T01:14:43.558Z,77.36
2022-12-31T01:17:13.304Z,77.58
2022-12-31T01:19:41.093Z,77.43
2022-12-31T01:22:08.912Z,77.87
2022-12-31T01:24:36.664Z,77.91
2022-12-31T01:27:04.597Z,77.93
2022-12-31T01:29:32.347Z,77.66
2022-12-31T01:32:01.503Z,78.25
2022-12-31T01:34:29.271Z,77.87
2022-12-31T01:36:57.051Z,78.25
2022-12-31T01:39:25.030Z,78.35
2022-12-31T01:41:52.894Z,78.29
2022-12-31T01:44:49.325Z,78.82
2022-12-31T01:47:22.123Z,78.53
2022-12-31T01:49:55.225Z,79.13
2022-12-31T01:52:28.127Z,78.73
2022-12-31T01:55:01.324Z,78.92
2022-12-31T01:57:29.511Z,78.86
2022-12-31T01:59:58.103Z,78.88
2022-12-31T02:02:27.701Z,78.82
2022-12-31T02:04:59.108Z,78.63
2022-12-31T02:07:27.135Z,78.72
2022-12-31T02:09:55.420Z,78.69
2022-12-31T02:12:23.546Z,78.60
2022-12-31T02:14:54.828Z,78.85
2022-12-31T02:17:33.639Z,78.85
2022-12-31T02:20:20.193Z,78.55
2022-12-31T02:23:07.605Z,78.54
2022-12-31T02:25:52.638Z,78.67
2022-12-31T02:28:38.961Z,78.56
2022-12-31T02:31:12.757Z,78.42
2022-12-31T02:33:45.860Z,78.21
2022-12-31T02:36:19.682Z,78.36
2022-12-31T02:38:49.786Z,78.19
2022-12-31T02:41:33.781Z,78.02
2022-12-31T02:44:01.948Z,78.49
2022-12-31T02:46:37.686Z,78.18
2022-12-31T02:49:13.525Z,78.20
2022-12-31T02:51:51.649Z,78.38
2022-12-31T02:54:31.712Z,78.13
2022-12-31T02:57:07.608Z,78.32
2022-12-31T02:59:58.873Z,78.40
2022-12-31T03:02:31.262Z,78.21
2022-12-31T03:05:02.600Z,78.08
2022-12-31T03:07:32.158Z,77.65
2022-12-31T03:10:00.949Z,77.78
2022-12-31T03:12:48.851Z,77.94
2022-12-31T03:15:22.849Z,77.78
2022-12-31T03:17:54.828Z,77.88
2022-12-31T03:20:43.768Z,77.95
2022-12-31T03:23:14.514Z,77.81
2022-12-31T03:25:41.343Z,77.60
2022-12-31T03:28:10.667Z,77.85
2022-12-31T03:30:40.227Z,77.77
2022-12-31T03:33:09.799Z,77.63
2022-12-31T03:35:39.280Z,77.83
2022-12-31T03:38:07.643Z,77.66
2022-12-31T03:40:39.935Z,77.49
2022-12-31T03:43:07.839Z,77.60
2022-12-31T03:45:35.953Z,77.93
2022-12-31T03:48:04.639Z,77.43
2022-12-31T03:50:34.287Z,77.46
2022-12-31T03:53:02.158Z,77.61
2022-12-31T03:55:29.968Z,77.49
2022-12-31T03:57:58.057Z,77.57
2022-12-31T04:00:25.852Z,77.90
2022-12-31T04:02:53.822Z,77.90
2022-12-31T04:05:22.689Z,77.54
2022-12-31T04:07:52.199Z,77.71
2022-12-31T04:10:21.163Z,77.38
2022-12-31T04:12:49.296Z,77.44
2022-12-31T04:15:19.790Z,77.82
2022-12-31T04:17:48.644Z,77.70
2022-12-31T04:20:17.063Z,77.81
2022-12-31T04:22:45.110Z,77.76
2022-12-31T04:25:14.477Z,77.65
2022-12-31T04:27:44.547Z,77.92
2022-12-31T04:30:13.500Z,77.94
2022-12-31T04:32:41.472Z,77.39
2022-12-31T04:35:10.554Z,77.64
2022-12-31T04:37:38.348Z,77.80
2022-12-31T04:40:07.206Z,78.15
2022-12-31T04:42:36.716Z,77.79
2022-12-31T04:45:05.102Z,78.07
2022-12-31T04:47:32.924Z,78.21
2022-12-31T04:50:00.718Z,77.94
2022-12-31T04:52:28.533Z,78.32
2022-12-31T04:54:56.276Z,78.08
2022-12-31T04:57:24.014Z,78.23
2022-12-31T04:59:53.203Z,77.99
2022-12-31T05:02:21.142Z,78.20
2022-12-31T05:04:49.144Z,77.90
2022-12-31T05:07:16.988Z,77.97
2022-12-31T05:09:44.842Z,78.24
2022-12-31T05:12:12.652Z,78.33
2022-12-31T05:14:40.462Z,78.34
2022-12-31T05:17:09.584Z,78.44
2022-12-31T05:19:37.355Z,78.52
2022-12-31T05:22:27.726Z,77.95
2022-12-31T05:24:55.517Z,78.08
2022-12-31T05:27:24.108Z,78.38
2022-12-31T05:29:52.395Z,78.41
2022-12-31T05:32:21.526Z,78.44
2022-12-31T05:34:49.303Z,78.60
2022-12-31T05:37:17.123Z,78.11
2022-12-31T05:39:44.883Z,78.11
2022-12-31T05:42:12.644Z,78.27
2022-12-31T05:44:40.425Z,78.63
2022-12-31T05:47:08.387Z,78.70
2022-12-31T05:49:37.821Z,78.24
2022-12-31T05:52:05.799Z,78.34
2022-12-31T05:54:33.695Z,78.62
2022-12-31T05:57:01.768Z,78.63
2022-12-31T05:59:29.736Z,78.81
2022-12-31T06:01:57.869Z,78.11
2022-12-31T06:04:25.855Z,78.32
2022-12-31T06:06:55.140Z,78.63
2022-12-31T06:09:23.304Z,78.22
2022-12-31T06:11:51.192Z,78.23
2022-12-31T06:14:19.012Z,77.42
2022-12-31T06:16:46.880Z,77.04
2022-12-31T06:19:14.657Z,76.96
2022-12-31T06:21:42.406Z,76.22
2022-12-31T06:24:11.611Z,75.50
2022-12-31T06:26:39.406Z,75.13
2022-12-31T06:29:07.241Z,74.76
2022-12-31T06:31:35.110Z,74.30
2022-12-31T06:34:03.006Z,73.60
2022-12-31T06:36:30.965Z,73.83
2022-12-31T06:38:58.923Z,74.54
2022-12-31T06:41:28.092Z,74.85
2022-12-31T06:43:55.859Z,75.13
2022-12-31T06:46:23.635Z,75.60
2022-12-31T06:48:51.468Z,75.94
2022-12-31T06:51:21.297Z,75.83
2022-12-31T06:53:51.519Z,75.67
2022-12-31T06:56:25.262Z,76.25
2022-12-31T06:58:57.966Z,76.22
2022-12-31T07:01:38.191Z,75.16
2022-12-31T07:04:28.383Z,74.66
2022-12-31T07:07:05.110Z,75.30
2022-12-31T07:09:37.996Z,76.32
2022-12-31T07:12:13.524Z,76.18
2022-12-31T07:14:47.730Z,76.34
2022-12-31T07:17:30.727Z,76.28
2022-12-31T07:20:03.981Z,77.48
2022-12-31T07:22:32.308Z,77.08
2022-12-31T07:25:00.805Z,76.41
2022-12-31T07:27:48.353Z,76.57
2022-12-31T07:30:21.246Z,76.19
2022-12-31T07:33:14.125Z,76.41
2022-12-31T07:35:51.189Z,76.76
2022-12-31T07:38:25.947Z,76.70
2022-12-31T07:41:09.364Z,77.03
2022-12-31T07:43:45.996Z,76.85
2022-12-31T07:46:20.791Z,77.74
2022-12-31T07:48:49.017Z,78.04
2022-12-31T07:51:17.650Z,77.44
2022-12-31T07:53:45.439Z,78.22
2022-12-31T07:56:14.333Z,78.38
2022-12-31T07:58:59.050Z,78.50
2022-12-31T08:01:36.836Z,78.14
2022-12-31T08:04:11.152Z,78.60
2022-12-31T08:06:46.444Z,78.68
2022-12-31T08:09:29.686Z,78.17
2022-12-31T08:11:59.186Z,78.43
2022-12-31T08:14:28.350Z,77.97
2022-12-31T08:16:59.187Z,78.06
2022-12-31T08:19:30.500Z,77.97
2022-12-31T08:22:11.451Z,78.51
2022-12-31T08:24:52.871Z,78.01
2022-12-31T08:27:28.845Z,78.11
2022-12-31T08:30:06.406Z,78.19
2022-12-31T08:32:43.248Z,78.19
2022-12-31T08:35:25.607Z,78.52
2022-12-31T08:38:00.664Z,78.81
2022-12-31T08:40:36.216Z,78.75
2022-12-31T08:43:17.434Z,78.55
2022-12-31T08:45:49.911Z,79.04
2022-12-31T08:48:30.924Z,78.43
2022-12-31T08:50:59.254Z,78.45
2022-12-31T08:53:27.732Z,78.37
2022-12-31T08:56:01.370Z,78.32
2022-12-31T08:58:40.527Z,78.95
2022-12-31T09:01:09.768Z,78.34
2022-12-31T09:04:02.844Z,78.51
2022-12-31T09:06:35.101Z,78.91
2022-12-31T09:09:12.464Z,79.02
2022-12-31T09:11:51.672Z,78.88
2022-12-31T09:14:37.665Z,79.05
2022-12-31T09:17:10.477Z,78.77
2022-12-31T09:19:39.602Z,78.99
2022-12-31T09:22:07.754Z,79.17
2022-12-31T09:24:36.031Z,78.64
2022-12-31T09:27:12.546Z,78.93
2022-12-31T09:29:51.662Z,79.04
2022-12-31T09:32:26.958Z,78.98
2022-12-31T09:35:07.542Z,78.87
2022-12-31T09:37:43.634Z,78.85
2022-12-31T09:40:50.400Z,78.83
2022-12-31T09:43:54.564Z,79.21
2022-12-31T09:47:13.392Z,78.98
2022-12-31T09:50:27.704Z,79.32
2022-12-31T09:53:09.741Z,79.07
2022-12-31T09:55:41.018Z,78.99
2022-12-31T09:58:24.831Z,78.84
2022-12-31T10:00:57.283Z,78.82
2022-12-31T10:03:43.935Z,78.89
2022-12-31T10:06:28.231Z,78.93
2022-12-31T10:09:14.440Z,78.73
2022-12-31T10:12:03.399Z,79.12
2022-12-31T10:14:47.685Z,78.78
2022-12-31T10:17:30.373Z,78.92
2022-12-31T10:20:17.184Z,79.04
2022-12-31T10:23:06.247Z,78.62
2022-12-31T10:25:48.437Z,78.44
2022-12-31T10:28:31.398Z,78.70
2022-12-31T10:31:14.050Z,78.97
2022-12-31T10:33:45.594Z,78.84
2022-12-31T10:36:21.838Z,79.00
2022-12-31T10:39:08.887Z,78.92
2022-12-31T10:42:06.106Z,78.84
2022-12-31T10:45:06.587Z,78.56
2022-12-31T10:48:22.032Z,78.83
2022-12-31T10:51:15.405Z,78.32
2022-12-31T10:54:19.181Z,78.25
2022-12-31T10:57:08.047Z,78.50
2022-12-31T11:00:08.123Z,78.45
2022-12-31T11:03:29.709Z,78.43
2022-12-31T11:06:44.920Z,78.57
2022-12-31T11:09:55.884Z,78.03
2022-12-31T11:12:44.628Z,78.37
2022-12-31T11:15:32.256Z,78.51
2022-12-31T11:18:11.421Z,78.32
2022-12-31T11:20:56.892Z,78.29
2022-12-31T11:23:38.063Z,78.30
2022-12-31T11:26:14.483Z,78.43
2022-12-31T11:28:55.558Z,77.76
2022-12-31T11:31:39.469Z,78.35
2022-12-31T11:34:26.673Z,78.29
2022-12-31T11:37:03.772Z,78.22
2022-12-31T11:39:46.111Z,77.95
2022-12-31T11:42:25.337Z,77.65
2022-12-31T11:45:00.064Z,78.39
2022-12-31T11:48:28.504Z,78.04
2022-12-31T11:50:46.103Z,77.52
2022-12-31T11:53:33.976Z,77.59
2022-12-31T11:56:12.476Z,77.76
2022-12-31T11:58:46.472Z,77.74
2022-12-31T12:01:19.487Z,77.93
2022-12-31T12:03:47.725Z,77.49
2022-12-31T12:06:18.440Z,77.54
2022-12-31T12:08:46.752Z,78.15
2022-12-31T12:11:21.705Z,77.97
2022-12-31T12:13:51.831Z,78.08
2022-12-31T12:16:22.742Z,77.95
2022-12-31T12:18:52.934Z,77.54
2022-12-31T12:21:23.566Z,78.45
2022-12-31T12:23:57.900Z,77.98
2022-12-31T12:26:34.077Z,78.22
2022-12-31T12:29:11.087Z,77.99
2022-12-31T12:31:39.919Z,78.28
2022-12-31T12:34:23.707Z,78.16
2022-12-31T12:36:51.552Z,78.31
2022-12-31T12:39:22.909Z,78.22
2022-12-31T12:42:01.679Z,78.13
2022-12-31T12:44:31.582Z,78.38
2022-12-31T12:47:00.305Z,78.43
2022-12-31T12:49:31.157Z,79.34
2022-12-31T12:52:20.804Z,79.52
2022-12-31T12:55:04.134Z,79.20
2022-12-31T12:57:40.148Z,78.72
2022-12-31T13:00:18.846Z,77.92
2022-12-31T13:03:21.763Z,78.20
2022-12-31T13:06:03.807Z,78.19
2022-12-31T13:08:46.297Z,78.07
2022-12-31T13:11:31.381Z,77.94
2022-12-31T13:14:07.408Z,78.05
2022-12-31T13:16:43.957Z,77.90
2022-12-31T13:19:20.534Z,78.05
2022-12-31T13:21:55.866Z,77.26
2022-12-31T13:24:34.728Z,76.66
2022-12-31T13:27:11.176Z,75.97
2022-12-31T13:29:41.702Z,75.76
2022-12-31T13:32:18.442Z,74.85
2022-12-31T13:34:47.455Z,74.23
2022-12-31T13:37:27.029Z,73.51
2022-12-31T13:40:01.850Z,72.56
2022-12-31T13:42:40.445Z,72.09
2022-12-31T13:45:14.589Z,71.16
2022-12-31T13:47:50.216Z,70.82
2022-12-31T13:50:23.227Z,70.59
2022-12-31T13:52:59.063Z,69.92
2022-12-31T13:55:33.280Z,69.37
2022-12-31T13:58:06.793Z,69.27
2022-12-31T14:00:41.250Z,69.46
2022-12-31T14:03:18.436Z,69.65
2022-12-31T14:05:52.897Z,70.20
2022-12-31T14:08:20.736Z,70.71
2022-12-31T14:11:01.515Z,71.19
2022-12-31T14:13:39.746Z,71.57
2022-12-31T14:16:20.159Z,72.33
2022-12-31T14:19:00.896Z,72.71
2022-12-31T14:21:34.192Z,73.02
2022-12-31T14:24:11.022Z,73.02
2022-12-31T14:26:41.904Z,73.27
2022-12-31T14:29:22.628Z,73.61
2022-12-31T14:32:22.131Z,73.97
2022-12-31T14:35:01.023Z,73.69
2022-12-31T14:37:37.915Z,73.80
2022-12-31T14:40:19.409Z,74.31
2022-12-31T14:42:57.128Z,74.49
2022-12-31T14:45:37.773Z,74.92
2022-12-31T14:48:21.868Z,74.44
2022-12-31T14:50:51.770Z,74.85
2022-12-31T14:53:24.768Z,74.33
2022-12-31T14:56:01.257Z,73.61
2022-12-31T14:58:35.531Z,72.89
2022-12-31T15:01:08.899Z,72.39
2022-12-31T15:03:45.368Z,71.60
2022-12-31T15:06:37.538Z,71.22
2022-12-31T15:09:17.305Z,70.92
2022-12-31T15:12:02.384Z,70.94
2022-12-31T15:15:11.332Z,71.07
2022-12-31T15:17:49.794Z,71.70
2022-12-31T15:20:46.909Z,72.27
2022-12-31T15:23:23.121Z,72.80
2022-12-31T15:25:56.675Z,73.02
2022-12-31T15:28:32.349Z,73.27
2022-12-31T15:31:05.937Z,73.42
2022-12-31T15:33:38.887Z,73.70
2022-12-31T15:36:18.555Z,73.54
2022-12-31T15:38:47.812Z,73.93
2022-12-31T15:41:27.819Z,73.76
2022-12-31T15:43:59.580Z,73.66
2022-12-31T15:46:30.605Z,73.80
2022-12-31T15:49:05.964Z,74.25
2022-12-31T15:51:46.240Z,73.82
2022-12-31T15:54:24.745Z,74.27
2022-12-31T15:56:54.232Z,74.02
2022-12-31T15:59:23.484Z,74.34
2022-12-31T16:01:51.683Z,74.43
2022-12-31T16:04:22.134Z,74.36
2022-12-31T16:06:51.509Z,74.26
2022-12-31T16:09:26.296Z,74.50
2022-12-31T16:11:56.098Z,74.42
2022-12-31T16:14:26.212Z,74.85
2022-12-31T16:16:59.043Z,74.46
2022-12-31T16:19:33.922Z,74.17
2022-12-31T16:22:07.890Z,74.19
2022-12-31T16:24:44.508Z,74.38
2022-12-31T16:27:24.777Z,74.14
2022-12-31T16:30:00.552Z,73.95
2022-12-31T16:32:34.776Z,74.44
2022-12-31T16:35:02.619Z,74.00
2022-12-31T16:37:30.431Z,73.88
2022-12-31T16:40:18.762Z,74.22
2022-12-31T16:42:48.711Z,74.14
2022-12-31T16:45:35.144Z,74.39
2022-12-31T16:48:16.377Z,74.51
2022-12-31T16:50:46.137Z,74.46
2022-12-31T16:53:17.812Z,74.08
2022-12-31T16:55:53.965Z,74.21
2022-12-31T16:58:28.021Z,73.93
2022-12-31T17:01:01.021Z,74.08
2022-12-31T17:03:29.883Z,73.89
2022-12-31T17:06:03.335Z,73.99
2022-12-31T17:08:42.080Z,73.93
2022-12-31T17:11:36.497Z,73.44
2022-12-31T17:14:13.919Z,73.47
2022-12-31T17:17:01.455Z,73.70
2022-12-31T17:19:41.463Z,74.13
2022-12-31T17:22:14.384Z,73.84
2022-12-31T17:24:42.651Z,73.59
2022-12-31T17:27:11.946Z,73.76
2022-12-31T17:29:39.745Z,73.54
2022-12-31T17:32:26.601Z,73.56
2022-12-31T17:34:54.428Z,73.56
2022-12-31T17:37:27.101Z,72.96
2022-12-31T17:40:17.072Z,73.13
2022-12-31T17:42:47.810Z,73.10
2022-12-31T17:45:20.964Z,72.89
2022-12-31T17:47:51.224Z,72.87
2022-12-31T17:50:22.512Z,72.62
2022-12-31T17:52:50.786Z,73.17
2022-12-31T17:55:18.598Z,72.82
2022-12-31T17:57:52.671Z,72.48
2022-12-31T18:00:22.576Z,72.82
2022-12-31T18:02:50.497Z,72.43
2022-12-31T18:05:20.752Z,72.15
2022-12-31T18:07:49.073Z,72.87
2022-12-31T18:10:19.013Z,71.48
2022-12-31T18:12:49.771Z,71.43
2022-12-31T18:15:20.943Z,70.97
2022-12-31T18:17:49.350Z,71.08
2022-12-31T18:20:17.341Z,71.50
2022-12-31T18:22:46.504Z,71.76
2022-12-31T18:25:17.568Z,71.14
2022-12-31T18:27:45.443Z,70.93
2022-12-31T18:30:16.610Z,70.30
2022-12-31T18:32:46.351Z,70.72
2022-12-31T18:35:40.292Z,70.26
2022-12-31T18:38:04.690Z,70.48
2022-12-31T18:40:34.375Z,70.73
2022-12-31T18:43:05.161Z,70.67
2022-12-31T18:45:34.713Z,70.79
2022-12-31T18:48:02.816Z,71.23
2022-12-31T18:50:30.589Z,71.00
2022-12-31T18:52:58.364Z,70.94
2022-12-31T18:55:33.548Z,71.18
2022-12-31T18:58:01.581Z,71.18
2022-12-31T19:00:29.643Z,71.25
2022-12-31T19:02:58.808Z,71.50
2022-12-31T19:05:28.320Z,71.08
2022-12-31T19:07:56.725Z,71.27
2022-12-31T19:10:25.055Z,70.83
2022-12-31T19:12:53.258Z,71.08
2022-12-31T19:15:25.551Z,70.62
2022-12-31T19:17:53.403Z,70.94
2022-12-31T19:20:22.535Z,71.12
2022-12-31T19:22:50.385Z,71.15
2022-12-31T19:25:20.850Z,70.59
2022-12-31T19:27:49.241Z,70.80
2022-12-31T19:30:19.183Z,70.60
2022-12-31T19:32:47.219Z,70.75
2022-12-31T19:35:16.564Z,70.82
2022-12-31T19:37:47.249Z,70.48
2022-12-31T19:40:17.570Z,70.63
2022-12-31T19:42:46.622Z,70.33
2022-12-31T19:45:16.454Z,70.16
2022-12-31T19:47:47.124Z,70.28
2022-12-31T19:50:16.944Z,70.29
2022-12-31T19:52:48.098Z,70.07
2022-12-31T19:55:18.635Z,70.46
2022-12-31T19:57:46.801Z,69.89
2022-12-31T20:00:16.526Z,70.34
2022-12-31T20:02:45.959Z,69.99
2022-12-31T20:05:16.068Z,70.23
2022-12-31T20:07:43.905Z,70.58
2022-12-31T20:10:13.086Z,69.69
2022-12-31T20:12:44.608Z,69.52
2022-12-31T20:15:13.023Z,69.26
2022-12-31T20:17:40.872Z,69.37
2022-12-31T20:20:09.496Z,69.15
2022-12-31T20:22:37.349Z,69.13
2022-12-31T20:25:05.782Z,69.13
2022-12-31T20:27:35.367Z,69.31
2022-12-31T20:30:03.486Z,69.03
2022-12-31T20:32:31.921Z,69.24
2022-12-31T20:34:59.866Z,69.28
2022-12-31T20:37:27.693Z,69.47
2022-12-31T20:39:55.450Z,69.51
2022-12-31T20:42:23.235Z,69.08
2022-12-31T20:44:52.403Z,69.34
2022-12-31T20:47:20.206Z,68.95
2022-12-31T20:52:35.957Z,69.08
2022-12-31T20:55:03.772Z,68.99
2022-12-31T20:57:33.918Z,68.85
2022-12-31T21:00:03.603Z,68.94
2022-12-31T21:02:41.621Z,68.48
2022-12-31T21:05:11.787Z,68.51
2022-12-31T21:07:39.841Z,68.62
2022-12-31T21:10:08.490Z,68.58
2022-12-31T21:12:44.004Z,68.46
2022-12-31T21:15:14.319Z,68.87
2022-12-31T21:17:42.149Z,68.74
2022-12-31T21:20:10.931Z,68.33
2022-12-31T21:22:38.766Z,68.49
2022-12-31T21:25:07.272Z,68.11
2022-12-31T21:27:37.021Z,68.36
2022-12-31T21:30:21.123Z,68.12
2022-12-31T21:32:50.412Z,68.52
2022-12-31T21:38:07.669Z,68.16
2022-12-31T21:40:35.552Z,67.65
2022-12-31T21:43:03.321Z,67.81
2022-12-31T21:45:31.311Z,68.16
2022-12-31T21:48:18.741Z,67.82
2022-12-31T21:50:48.600Z,68.12
2022-12-31T21:53:23.495Z,67.83
2022-12-31T21:56:11.690Z,67.60
2022-12-31T21:58:41.137Z,67.85
2022-12-31T22:01:34.241Z,67.63
2022-12-31T22:04:03.744Z,67.97
2022-12-31T22:06:32.098Z,67.88
2022-12-31T22:08:59.878Z,67.68
2022-12-31T22:11:29.712Z,68.09
2022-12-31T22:13:57.566Z,67.70
2022-12-31T22:16:25.653Z,67.95
2022-12-31T22:18:56.385Z,68.34
2022-12-31T22:21:26.640Z,67.83
2022-12-31T22:23:56.370Z,67.76
2022-12-31T22:26:26.243Z,67.90
2022-12-31T22:28:59.015Z,67.71
2022-12-31T22:31:30.141Z,67.46
2022-12-31T22:33:58.743Z,67.58
2022-12-31T22:36:27.985Z,68.01
2022-12-31T22:38:58.217Z,67.78
2022-12-31T22:41:27.800Z,67.20
2022-12-31T22:44:03.243Z,67.99
2022-12-31T22:46:32.484Z,67.89
2022-12-31T22:49:01.198Z,67.63
2022-12-31T22:51:54.842Z,68.01
2022-12-31T22:54:19.051Z,67.78
2022-12-31T22:56:47.001Z,67.74
2022-12-31T22:59:14.859Z,68.02
2022-12-31T23:01:42.877Z,67.46
2022-12-31T23:04:10.836Z,64.45
2022-12-31T23:06:44.269Z,62.29
2022-12-31T23:09:30.780Z,61.82
2022-12-31T23:11:58.646Z,60.52
2022-12-31T23:14:44.473Z,60.05
2022-12-31T23:17:34.757Z,61.32
2022-12-31T23:20:20.612Z,62.49
2022-12-31T23:23:09.702Z,63.68
2022-12-31T23:25:40.460Z,63.83
2022-12-31T23:28:10.036Z,64.09
2022-12-31T23:30:39.630Z,64.72
2022-12-31T23:33:07.708Z,65.43
2022-12-31T23:35:35.495Z,65.62
2022-12-31T23:38:04.625Z,66.21
2022-12-31T23:40:35.333Z,65.85
2022-12-31T23:43:04.143Z,66.05
2022-12-31T23:45:33.430Z,66.43
2022-12-31T23:48:02.104Z,66.26
2022-12-31T23:50:30.033Z,66.56
2022-12-31T23:52:57.871Z,66.10
2022-12-31T23:55:27.077Z,66.05
2022-12-31T23:57:54.870Z,66.18
